Time;durP1;ratioP1;P1;durP2;ratioP2;P2;SDS_P1;SDS_P2;PMS_P1;PMS_P2;Temp;Humidity;BMP_temperature;BMP_pressure;BME280_temperature;BME280_humidity;BME280_pressure;Samples;Min_cycle;Max_cycle;Signal;HPM_P1;HPM_P2
2022/10/15 00:02:02;;;;;;;4.80;3.43;;;;;;;8.99;95.37;101584.22;4915973;29;20096;-78
2022/10/15 00:04:30;;;;;;;4.47;3.50;;;;;;;8.94;96.29;101581.94;4916484;29;20053;-78
2022/10/15 00:06:55;;;;;;;4.70;3.43;;;;;;;8.98;96.19;101588.69;4918999;29;20036;-77
2022/10/15 00:09:21;;;;;;;4.47;2.90;;;;;;;8.95;96.95;101583.63;4917640;29;20038;-77
2022/10/15 00:11:46;;;;;;;7.27;3.33;;;;;;;8.96;96.85;101585.34;4931766;29;20028;-77
2022/10/15 00:14:12;;;;;;;6.30;3.60;;;;;;;9.02;97.19;101588.44;4937891;29;20008;-76
2022/10/15 00:16:38;;;;;;;4.80;3.30;;;;;;;9.00;97.84;101585.91;4938526;29;20103;-77
2022/10/15 00:19:03;;;;;;;4.27;3.33;;;;;;;8.99;97.71;101590.38;4936678;29;20032;-77
2022/10/15 00:21:29;;;;;;;5.87;3.57;;;;;;;8.89;98.07;101581.50;4937679;29;20099;-75
2022/10/15 00:23:55;;;;;;;3.63;3.30;;;;;;;8.85;98.11;101577.44;4936750;29;20016;-77
2022/10/15 00:26:24;;;;;;;6.57;4.20;;;;;;;8.87;98.78;101586.09;4935959;29;20533;-78
2022/10/15 00:28:50;;;;;;;;;;;;;;;8.92;99.01;101586.53;4918385;29;20020;-77
2022/10/15 00:31:18;;;;;;;7.23;4.40;;;;;;;8.76;98.97;101572.91;4916872;29;19915;-77
2022/10/15 00:33:44;;;;;;;5.90;4.15;;;;;;;8.79;98.89;101590.41;4917085;29;20062;-76
2022/10/15 00:36:13;;;;;;;8.37;5.93;;;;;;;8.75;100.00;101589.81;4917175;29;20028;-77
2022/10/15 00:38:39;;;;;;;5.20;3.90;;;;;;;8.71;100.00;101587.56;4916982;29;20027;-77
2022/10/15 00:41:06;;;;;;;8.97;4.10;;;;;;;8.72;100.00;101587.44;4916890;29;20032;-77
2022/10/15 00:43:50;;;;;;;6.67;4.20;;;;;;;8.71;100.00;101585.75;4916813;29;20084;-77
2022/10/15 00:46:23;;;;;;;6.83;3.70;;;;;;;8.69;100.00;101587.69;4896215;29;20057;-76
2022/10/15 00:48:55;;;;;;;5.80;4.30;;;;;;;8.63;100.00;101590.84;4897826;29;20051;-75
2022/10/15 00:51:25;;;;;;;7.27;4.10;;;;;;;8.52;100.00;101582.94;4916221;29;20392;-76
2022/10/15 00:53:51;;;;;;;10.50;4.87;;;;;;;8.51;100.00;101583.94;4916361;29;20061;-77
2022/10/15 00:56:20;;;;;;;8.37;4.00;;;;;;;8.50;100.00;101588.41;4916188;29;20036;-77
2022/10/15 00:58:47;;;;;;;7.27;4.30;;;;;;;8.47;100.00;101582.50;4915568;29;20111;-77
2022/10/15 01:01:13;;;;;;;7.53;3.87;;;;;;;8.47;100.00;101582.50;4916369;29;20040;-77
2022/10/15 01:03:39;;;;;;;5.73;4.30;;;;;;;8.45;100.00;101582.63;4916444;29;20082;-76
2022/10/15 01:06:04;;;;;;;6.27;4.40;;;;;;;8.48;100.00;101578.88;4916420;29;20023;-77
2022/10/15 01:08:30;;;;;;;7.43;5.13;;;;;;;8.49;100.00;101583.22;4899383;29;20086;-76
2022/10/15 01:11:17;;;;;;;6.37;4.30;;;;;;;8.56;100.00;101579.06;4916515;29;20059;-76
2022/10/15 01:13:54;;;;;;;7.20;4.00;;;;;;;8.50;100.00;101571.63;4916550;29;20123;-77
2022/10/15 01:16:42;;;;;;;5.57;4.37;;;;;;;8.27;100.00;101534.53;4915358;29;20032;-76
2022/10/15 01:19:28;;;;;;;5.90;4.03;;;;;;;8.29;100.00;101531.75;4916528;29;20124;-78
2022/10/15 01:22:04;;;;;;;7.70;4.10;;;;;;;8.52;100.00;101575.00;4916677;29;20035;-77
2022/10/15 01:24:33;;;;;;;6.47;5.13;;;;;;;8.54;100.00;101573.03;4916136;29;20453;-76
2022/10/15 01:27:25;;;;;;;5.22;4.15;;;;;;;8.58;100.00;101570.00;4916184;29;20051;-77
2022/10/15 01:30:20;;;;;;;5.80;3.87;;;;;;;8.65;100.00;101583.59;4899147;29;20107;-77
2022/10/15 01:32:45;;;;;;;5.83;4.10;;;;;;;8.67;100.00;101578.97;4915131;29;20130;-77
2022/10/15 01:35:26;;;;;;;6.67;4.00;;;;;;;8.72;100.00;101581.28;4899537;29;20110;-76
2022/10/15 01:37:55;;;;;;;8.70;5.27;;;;;;;8.68;100.00;101565.59;4917260;29;20119;-76
2022/10/15 01:40:44;;;;;;;5.43;4.43;;;;;;;8.71;100.00;101574.28;4916508;29;20032;-77
2022/10/15 01:43:14;;;;;;;;;;;;;;;8.76;100.00;101575.56;4916816;29;20532;-76
2022/10/15 01:45:51;;;;;;;7.53;4.77;;;;;;;8.65;100.00;101576.47;4916146;29;20336;-78
2022/10/15 01:48:21;;;;;;;10.23;4.50;;;;;;;8.61;100.00;101579.50;4916178;29;20036;-76
2022/10/15 01:50:52;;;;;;;7.10;4.27;;;;;;;8.58;100.00;101579.78;4915695;29;20452;-76
2022/10/15 01:53:25;;;;;;;6.47;3.70;;;;;;;8.57;100.00;101575.44;4916191;29;20432;-77
2022/10/15 01:55:54;;;;;;;5.77;4.03;;;;;;;8.59;100.00;101579.63;4915887;29;20032;-77
2022/10/15 01:58:22;;;;;;;4.73;3.70;;;;;;;8.56;100.00;101576.41;4898500;29;20031;-77
2022/10/15 02:00:48;;;;;;;9.13;3.50;;;;;;;8.54;100.00;101578.34;4916044;29;20062;-78
2022/10/15 02:03:13;;;;;;;6.33;3.77;;;;;;;8.48;100.00;101584.19;4915732;29;20055;-78
2022/10/15 02:05:49;;;;;;;5.37;3.87;;;;;;;8.50;100.00;101576.94;4915990;29;20473;-77
2022/10/15 02:08:35;;;;;;;10.37;4.03;;;;;;;8.55;100.00;101580.03;4916253;29;20119;-77
2022/10/15 02:11:10;;;;;;;8.43;3.80;;;;;;;8.52;100.00;101575.84;4907853;29;20476;-76
2022/10/15 02:14:02;;;;;;;4.40;3.37;;;;;;;8.56;100.00;101581.72;4904680;29;20031;-76
2022/10/15 02:16:48;;;;;;;6.07;3.77;;;;;;;8.41;100.00;101567.09;4905605;29;20070;-76
2022/10/15 02:19:25;;;;;;;6.63;4.83;;;;;;;8.41;100.00;101580.38;4920520;29;20031;-78
2022/10/15 02:22:07;;;;;;;7.40;3.83;;;;;;;8.42;100.00;101582.91;4920326;29;20028;-77
2022/10/15 02:24:39;;;;;;;5.40;3.53;;;;;;;8.40;100.00;101576.88;4919575;29;20059;-78
2022/10/15 02:27:07;;;;;;;10.40;4.30;;;;;;;8.38;100.00;101569.03;4919344;29;20024;-76
2022/10/15 02:29:35;;;;;;;7.73;4.30;;;;;;;8.36;100.00;101578.91;4919169;29;20024;-77
2022/10/15 02:32:04;;;;;;;9.35;4.65;;;;;;;8.35;100.00;101581.69;4919651;29;20417;-78
2022/10/15 02:34:32;;;;;;;4.87;3.77;;;;;;;8.25;100.00;101571.00;4919402;29;20036;-78
2022/10/15 02:37:01;;;;;;;7.47;4.70;;;;;;;8.29;100.00;101571.56;4919515;29;20084;-78
2022/10/15 02:39:27;;;;;;;7.57;4.10;;;;;;;8.25;100.00;101568.34;4919543;29;20114;-78
2022/10/15 02:41:53;;;;;;;7.13;4.30;;;;;;;8.32;100.00;101568.66;4919220;29;20059;-76
2022/10/15 02:44:20;;;;;;;5.13;3.63;;;;;;;8.44;100.00;101574.81;4928179;29;20048;-78
2022/10/15 02:46:46;;;;;;;5.93;3.80;;;;;;;8.48;100.00;101571.75;4942768;29;20048;-78
2022/10/15 02:49:16;;;;;;;6.50;3.87;;;;;;;8.59;100.00;101573.50;4928083;29;20037;-77
2022/10/15 02:51:41;;;;;;;5.83;4.10;;;;;;;8.52;100.00;101564.38;4921834;29;20598;-77
2022/10/15 02:54:07;;;;;;;7.67;4.37;;;;;;;8.47;100.00;101569.22;4920287;29;20468;-79
2022/10/15 02:56:33;;;;;;;8.90;4.33;;;;;;;8.49;100.00;101572.59;4902335;29;20024;-77
2022/10/15 02:58:59;;;;;;;5.53;4.27;;;;;;;8.52;100.00;101567.03;4919632;29;20028;-77
2022/10/15 03:01:24;;;;;;;7.33;5.10;;;;;;;8.56;100.00;101576.41;4920068;29;20031;-76
2022/10/15 03:03:50;;;;;;;7.30;4.40;;;;;;;8.59;100.00;101561.06;4918828;29;20070;-77
2022/10/15 03:06:15;;;;;;;6.77;5.60;;;;;;;8.63;100.00;101569.59;4918850;29;20166;-77
2022/10/15 03:08:41;;;;;;;8.17;5.57;;;;;;;8.65;100.00;101570.31;4918881;29;20040;-78
2022/10/15 03:11:07;;;;;;;10.47;5.63;;;;;;;8.62;100.00;101575.88;4919310;29;20035;-77
2022/10/15 03:13:38;;;;;;;10.47;4.50;;;;;;;8.51;100.00;101574.16;4909813;29;20196;-76
2022/10/15 03:16:05;;;;;;;4.93;4.30;;;;;;;8.43;100.00;101571.31;4921087;29;20032;-76
2022/10/15 03:18:31;;;;;;;7.60;5.07;;;;;;;8.31;100.00;101570.47;4919418;29;20040;-78
2022/10/15 03:20:57;;;;;;;8.90;4.87;;;;;;;8.29;100.00;101572.41;4918583;29;20119;-77
2022/10/15 03:23:23;;;;;;;7.10;4.93;;;;;;;8.27;100.00;101577.00;4918270;29;20360;-77
2022/10/15 03:25:48;;;;;;;5.70;4.60;;;;;;;8.31;100.00;101575.78;4918270;29;20079;-76
2022/10/15 03:28:14;;;;;;;7.90;5.03;;;;;;;8.36;100.00;101578.06;4918278;29;20067;-78
2022/10/15 03:30:41;;;;;;;7.43;4.80;;;;;;;8.36;100.00;101565.66;4918014;29;20085;-77
2022/10/15 03:33:07;;;;;;;5.77;4.47;;;;;;;8.44;100.00;101565.03;4918182;29;20043;-78
2022/10/15 03:35:32;;;;;;;8.13;5.23;;;;;;;8.49;100.00;101572.59;4902479;29;20032;-78
2022/10/15 03:37:58;;;;;;;6.00;4.57;;;;;;;8.44;100.00;101572.16;4919949;29;20030;-77
2022/10/15 03:40:23;;;;;;;7.87;4.13;;;;;;;8.42;100.00;101563.47;4919480;29;20456;-78
2022/10/15 03:42:52;;;;;;;7.37;4.30;;;;;;;8.29;100.00;101551.19;4918743;29;20095;-76
2022/10/15 03:45:23;;;;;;;;;;;;;;;8.41;100.00;101572.41;4919534;29;20044;-77
2022/10/15 03:47:50;;;;;;;9.20;4.80;;;;;;;8.34;100.00;101570.25;4900319;29;19922;-77
2022/10/15 03:50:16;;;;;;;8.03;4.70;;;;;;;8.33;100.00;101560.59;4900204;29;20089;-76
2022/10/15 03:52:42;;;;;;;9.60;5.10;;;;;;;8.29;100.00;101563.59;4883575;29;20485;-76
2022/10/15 03:55:08;;;;;;;8.13;5.10;;;;;;;8.26;100.00;101564.72;4902278;29;20032;-76
2022/10/15 03:57:34;;;;;;;10.90;5.20;;;;;;;8.30;100.00;101563.47;4898919;29;20036;-77
2022/10/15 04:00:00;;;;;;;7.87;4.63;;;;;;;8.31;100.00;101567.81;4898506;29;20032;-77
2022/10/15 04:02:25;;;;;;;8.47;4.93;;;;;;;8.31;100.00;101565.16;4899312;29;20093;-76
2022/10/15 04:04:52;;;;;;;7.10;5.47;;;;;;;8.23;100.00;101556.16;4899318;29;20036;-78
2022/10/15 04:07:21;;;;;;;11.00;5.47;;;;;;;8.22;100.00;101557.13;4900319;29;20454;-76
2022/10/15 04:09:47;;;;;;;8.10;4.47;;;;;;;8.24;100.00;101563.16;4882943;29;20029;-76
2022/10/15 04:12:13;;;;;;;7.23;4.80;;;;;;;8.24;100.00;101563.16;4902876;29;20033;-77
2022/10/15 04:14:39;;;;;;;6.37;5.00;;;;;;;8.17;100.00;101568.13;4900830;29;20041;-77
2022/10/15 04:17:05;;;;;;;8.37;4.80;;;;;;;8.26;100.00;101564.72;4899960;29;20493;-78
2022/10/15 04:19:31;;;;;;;6.87;4.77;;;;;;;8.28;100.00;101578.69;4899424;29;20028;-77
2022/10/15 04:21:56;;;;;;;9.17;5.07;;;;;;;8.24;100.00;101571.13;4898556;29;20381;-77
2022/10/15 04:24:22;;;;;;;6.73;5.17;;;;;;;8.18;100.00;101569.81;4898719;29;20073;-76
2022/10/15 04:26:48;;;;;;;6.40;4.87;;;;;;;8.18;100.00;101572.47;4898077;29;20029;-78
2022/10/15 04:29:14;;;;;;;7.37;4.20;;;;;;;8.19;100.00;101560.03;4898193;29;20123;-77
2022/10/15 04:31:41;;;;;;;6.90;4.77;;;;;;;8.19;100.00;101566.19;4897983;29;20037;-76
2022/10/15 04:34:07;;;;;;;9.00;5.17;;;;;;;8.18;100.00;101556.56;4897926;29;20120;-77
2022/10/15 04:36:33;;;;;;;9.87;5.33;;;;;;;8.25;100.00;101560.38;4881516;29;20128;-77
2022/10/15 04:38:58;;;;;;;9.07;5.80;;;;;;;8.29;100.00;101561.78;4898215;29;20036;-77
2022/10/15 04:41:24;;;;;;;8.43;4.40;;;;;;;8.23;100.00;101546.41;4898021;29;20483;-77
2022/10/15 04:43:49;;;;;;;6.87;5.17;;;;;;;8.36;100.00;101562.16;4898143;29;20115;-77
2022/10/15 04:46:15;;;;;;;8.53;5.10;;;;;;;8.20;100.00;101532.53;4888359;29;20230;-77
2022/10/15 04:48:41;;;;;;;7.37;5.00;;;;;;;8.28;100.00;101557.47;4917392;29;20043;-78
2022/10/15 04:51:16;;;;;;;7.27;4.40;;;;;;;8.30;100.00;101560.81;4918530;29;20452;-78
2022/10/15 04:53:42;;;;;;;11.00;5.70;;;;;;;8.32;100.00;101560.69;4917557;29;20054;-77
2022/10/15 04:56:14;;;;;;;9.60;4.60;;;;;;;8.41;100.00;101567.09;4917085;29;20028;-76
2022/10/15 04:58:45;;;;;;;7.50;5.20;;;;;;;8.45;100.00;101558.75;4917468;29;20028;-77
2022/10/15 05:01:13;;;;;;;9.13;4.87;;;;;;;8.42;100.00;101558.16;4916916;29;20031;-76
2022/10/15 05:03:41;;;;;;;6.40;4.75;;;;;;;8.37;100.00;101562.03;4916839;29;20036;-76
2022/10/15 05:06:18;;;;;;;7.57;4.88;;;;;;;8.20;100.00;101533.38;4917472;29;20032;-76
2022/10/15 05:08:45;;;;;;;10.17;5.63;;;;;;;8.33;100.00;101562.38;4918289;29;20035;-77
2022/10/15 05:11:14;;;;;;;9.00;5.10;;;;;;;8.29;100.00;101558.31;4916902;29;20032;-76
2022/10/15 05:13:41;;;;;;;8.47;4.90;;;;;;;8.27;100.00;101566.41;4900604;29;20096;-74
2022/10/15 05:16:20;;;;;;;8.20;4.50;;;;;;;8.28;100.00;101557.47;4917775;29;20024;-77
2022/10/15 05:18:48;;;;;;;8.70;4.47;;;;;;;8.26;100.00;101561.22;4917776;29;20040;-74
2022/10/15 05:21:15;;;;;;;10.77;5.53;;;;;;;8.29;100.00;101564.44;4921131;29;20036;-79
2022/10/15 05:23:42;;;;;;;13.00;5.40;;;;;;;8.34;100.00;101567.59;4918411;29;20104;-75
2022/10/15 05:26:11;;;;;;;10.63;5.53;;;;;;;8.32;100.00;101566.84;4917584;29;20432;-76
2022/10/15 05:28:37;;;;;;;8.23;5.07;;;;;;;8.34;100.00;101567.59;4917291;29;20480;-76
2022/10/15 05:31:05;;;;;;;9.57;5.27;;;;;;;8.38;100.00;101569.03;4917655;29;20032;-75
2022/10/15 05:33:30;;;;;;;13.17;5.00;;;;;;;8.37;100.00;101567.31;4916929;29;20024;-80
2022/10/15 05:35:56;;;;;;;8.83;5.03;;;;;;;8.40;100.00;101576.03;4916930;29;20437;-77
2022/10/15 05:38:22;;;;;;;8.37;4.93;;;;;;;8.40;100.00;101579.53;4916773;29;20077;-77
2022/10/15 05:40:48;;;;;;;10.37;4.93;;;;;;;8.36;100.00;101568.31;4916592;29;20036;-78
2022/10/15 05:43:14;;;;;;;9.87;7.23;;;;;;;8.44;100.00;101574.81;4916549;29;20444;-76
2022/10/15 05:45:40;;;;;;;7.77;4.90;;;;;;;8.50;100.00;101576.94;4918433;29;20135;-74
2022/10/15 05:48:07;;;;;;;6.83;5.17;;;;;;;8.48;100.00;101573.56;4920501;29;20487;-75
2022/10/15 05:50:32;;;;;;;10.97;4.67;;;;;;;8.49;100.00;101577.91;4920025;29;20047;-75
2022/10/15 05:52:58;;;;;;;7.83;6.17;;;;;;;8.49;100.00;101569.94;4920111;29;20031;-75
2022/10/15 05:55:23;;;;;;;12.93;5.43;;;;;;;8.48;100.00;101566.44;4919974;29;20039;-77
2022/10/15 05:57:49;;;;;;;10.87;5.27;;;;;;;8.67;99.86;101579.84;4920598;29;20031;-76
2022/10/15 06:00:15;;;;;;;8.60;5.13;;;;;;;8.67;99.47;101560.41;4920936;29;20052;-78
2022/10/15 06:02:40;;;;;;;8.23;5.03;;;;;;;8.73;98.63;101573.19;4920134;29;20822;-74
2022/10/15 06:05:06;;;;;;;10.63;6.60;;;;;;;8.75;98.20;101575.69;4918794;29;20058;-74
2022/10/15 06:07:32;;;;;;;7.97;5.27;;;;;;;8.73;98.18;101573.19;4908106;29;20108;-70
2022/10/15 06:09:57;;;;;;;9.67;6.10;;;;;;;8.68;98.40;101578.88;4941554;29;20023;-78
2022/10/15 06:12:26;;;;;;;9.00;6.10;;;;;;;8.52;98.12;101561.72;4940667;29;20020;-73
2022/10/15 06:14:51;;;;;;;12.88;6.80;;;;;;;8.57;98.37;101578.09;4923264;29;20046;-74
2022/10/15 06:17:17;;;;;;;18.50;8.37;;;;;;;8.66;99.23;101577.31;4919828;29;20383;-74
2022/10/15 06:19:42;;;;;;;13.70;7.17;;;;;;;8.70;98.82;101589.38;4919180;29;20032;-75
2022/10/15 06:22:08;;;;;;;10.13;6.43;;;;;;;8.74;99.04;101577.50;4917899;29;20425;-72
2022/10/15 06:24:33;;;;;;;9.20;5.67;;;;;;;8.79;98.28;101591.25;4919036;29;20065;-75
2022/10/15 06:26:59;;;;;;;16.00;9.17;;;;;;;8.87;97.87;101583.44;4918993;29;20047;-75
2022/10/15 06:29:24;;;;;;;11.13;7.40;;;;;;;8.94;97.73;101573.97;4918738;29;20028;-75
2022/10/15 06:31:50;;;;;;;10.30;6.50;;;;;;;8.98;97.91;101587.84;4901980;29;20119;-75
2022/10/15 06:34:15;;;;;;;9.53;6.37;;;;;;;8.98;98.19;101572.75;4919009;29;20463;-74
2022/10/15 06:36:41;;;;;;;8.40;5.27;;;;;;;9.15;97.80;101583.72;4921568;29;20024;-75
2022/10/15 06:39:07;;;;;;;13.67;7.50;;;;;;;9.23;96.83;101590.03;4922293;29;20482;-74
2022/10/15 06:41:32;;;;;;;18.93;9.97;;;;;;;9.12;96.71;101573.38;4925863;29;20106;-75
2022/10/15 06:43:58;;;;;;;20.13;9.23;;;;;;;9.20;96.84;101590.31;4923760;29;20380;-76
2022/10/15 06:46:26;;;;;;;12.57;8.03;;;;;;;9.06;96.58;101580.06;4896254;29;20120;-76
2022/10/15 06:49:17;;;;;;;15.80;7.77;;;;;;;8.92;96.73;101567.94;4929504;29;20048;-76
2022/10/15 06:51:43;;;;;;;10.13;7.53;;;;;;;9.02;97.02;101593.75;4941975;29;20096;-79
2022/10/15 06:54:08;;;;;;;12.40;7.20;;;;;;;8.96;97.13;101595.09;4942136;29;20064;-77
2022/10/15 06:56:35;;;;;;;19.07;10.23;;;;;;;8.90;97.31;101591.16;4940327;29;20044;-76
2022/10/15 06:59:00;;;;;;;20.37;10.87;;;;;;;8.85;97.73;101593.38;4940149;29;20096;-77
2022/10/15 07:01:26;;;;;;;18.83;10.67;;;;;;;8.80;96.61;101606.19;4932105;29;20052;-75
2022/10/15 07:03:51;;;;;;;22.27;11.70;;;;;;;8.83;96.93;101603.28;4929302;29;20024;-76
2022/10/15 07:06:17;;;;;;;17.70;9.27;;;;;;;8.82;97.96;101588.31;4932195;29;20452;-75
2022/10/15 07:08:44;;;;;;;15.20;9.23;;;;;;;8.95;97.36;101601.38;4935461;29;20036;-76
2022/10/15 07:11:10;;;;;;;22.60;9.40;;;;;;;9.09;97.55;101600.22;4936530;29;20052;-73
2022/10/15 07:13:38;;;;;;;9.53;6.37;;;;;;;9.33;96.72;101603.41;4938059;29;20039;-78
2022/10/15 07:16:06;;;;;;;11.80;6.30;;;;;;;9.39;95.41;101594.88;4930969;29;20032;-75
2022/10/15 07:18:33;;;;;;;11.90;6.68;;;;;;;9.54;94.25;101604.19;4924440;29;20056;-78
2022/10/15 07:20:59;;;;;;;10.77;6.70;;;;;;;9.75;93.62;101606.72;4934064;29;20043;-76
2022/10/15 07:23:24;;;;;;;15.73;7.53;;;;;;;9.91;93.05;101600.91;4935669;29;20036;-76
2022/10/15 07:25:50;;;;;;;11.93;6.67;;;;;;;9.93;91.13;101598.94;4935262;29;20032;-78
2022/10/15 07:28:15;;;;;;;16.87;8.23;;;;;;;9.90;91.59;101604.53;4933045;29;20084;-77
2022/10/15 07:30:41;;;;;;;11.53;7.27;;;;;;;10.03;91.97;101613.09;4922551;29;20058;-78
2022/10/15 07:33:07;;;;;;;13.67;6.80;;;;;;;10.09;91.00;101609.88;4903718;29;20031;-77
2022/10/15 07:35:32;;;;;;;8.77;5.93;;;;;;;10.11;90.48;101615.88;4924281;29;20028;-75
2022/10/15 07:38:01;;;;;;;10.90;5.37;;;;;;;10.10;89.76;101619.53;4921720;29;20184;-76
2022/10/15 07:40:27;;;;;;;8.05;5.97;;;;;;;10.16;90.32;101629.66;4919605;29;20095;-75
2022/10/15 07:42:54;;;;;;;14.87;8.93;;;;;;;10.24;90.03;101621.84;4901355;29;20477;-76
2022/10/15 07:45:22;;;;;;;16.77;7.80;;;;;;;10.29;89.74;101628.56;4918582;29;20043;-77
2022/10/15 07:47:51;;;;;;;11.20;6.70;;;;;;;10.06;89.55;101602.16;4899757;29;20119;-77
2022/10/15 07:50:17;;;;;;;7.93;6.10;;;;;;;10.09;89.46;101623.16;4899512;29;20430;-78
2022/10/15 07:52:43;;;;;;;10.07;5.57;;;;;;;10.07;90.18;101619.81;4899246;29;20062;-77
2022/10/15 07:55:09;;;;;;;14.67;8.57;;;;;;;10.07;90.52;101630.44;4900161;29;20036;-76
2022/10/15 07:57:34;;;;;;;34.30;15.37;;;;;;;9.71;90.77;101596.50;4899135;29;20044;-77
2022/10/15 08:00:00;;;;;;;17.23;8.77;;;;;;;9.78;92.21;101618.91;4899530;29;20454;-77
2022/10/15 08:02:26;;;;;;;14.57;8.87;;;;;;;9.78;92.41;101618.91;4881119;29;20035;-76
2022/10/15 08:04:54;;;;;;;13.00;7.73;;;;;;;9.81;92.64;101629.28;4889281;29;20381;-78
2022/10/15 08:07:20;;;;;;;;;;;;;;;9.99;92.30;101640.13;4867811;29;20060;-77
2022/10/15 08:09:46;;;;;;;18.63;8.40;;;;;;;9.89;91.40;101626.81;4871956;29;19918;-77
2022/10/15 08:12:11;;;;;;;18.00;9.67;;;;;;;9.95;91.66;101636.88;4882675;29;20064;-76
2022/10/15 08:14:37;;;;;;;16.03;9.43;;;;;;;9.84;91.82;101602.44;4880399;29;20036;-78
2022/10/15 08:17:05;;;;;;;15.80;7.77;;;;;;;10.00;91.37;101602.72;4865130;29;20040;-79
2022/10/15 08:19:30;;;;;;;15.10;7.50;;;;;;;10.30;90.57;101640.88;4865102;29;20037;-77
2022/10/15 08:21:57;;;;;;;12.83;7.40;;;;;;;10.48;90.43;101644.53;4865361;29;20437;-78
2022/10/15 08:24:23;;;;;;;12.60;8.33;;;;;;;10.52;90.50;101641.47;4864577;29;20112;-79
2022/10/15 08:26:49;;;;;;;9.70;8.13;;;;;;;10.46;90.15;101626.03;4880902;29;20029;-77
2022/10/15 08:29:14;;;;;;;9.27;7.63;;;;;;;10.43;90.13;101629.00;4865611;29;20388;-77
2022/10/15 08:31:40;;;;;;;9.80;7.27;;;;;;;10.26;90.41;101611.03;4881451;29;20037;-76
2022/10/15 08:34:06;;;;;;;12.97;7.57;;;;;;;10.55;90.18;101629.69;4865308;29;20468;-77
2022/10/15 08:36:32;;;;;;;11.53;7.80;;;;;;;10.68;89.83;101630.22;4864864;29;20028;-78
2022/10/15 08:39:00;;;;;;;12.03;7.23;;;;;;;10.90;89.65;101642.38;4864118;29;20037;-77
2022/10/15 08:41:34;;;;;;;10.13;7.80;;;;;;;10.77;88.46;101617.88;4899152;29;20040;-76
2022/10/15 08:44:00;;;;;;;12.87;8.10;;;;;;;10.77;88.41;101628.53;4865723;29;20096;-77
2022/10/15 08:46:44;;;;;;;12.50;8.40;;;;;;;10.72;89.38;101628.97;4889087;29;20056;-76
2022/10/15 08:49:25;;;;;;;11.63;8.10;;;;;;;10.70;89.17;101628.28;4899284;29;20043;-77
2022/10/15 08:51:55;;;;;;;14.60;8.80;;;;;;;10.65;89.61;101624.31;4899740;29;20028;-77
2022/10/15 08:54:21;;;;;;;13.83;8.30;;;;;;;10.60;89.97;101622.09;4917410;29;20465;-77
2022/10/15 08:56:52;;;;;;;14.80;7.40;;;;;;;10.58;90.19;101624.06;4899400;29;20031;-77
2022/10/15 08:59:18;;;;;;;14.13;8.53;;;;;;;10.73;90.03;101625.31;4915239;29;20119;-77
2022/10/15 09:02:02;;;;;;;13.67;9.10;;;;;;;10.68;90.49;101595.56;4902724;29;20062;-77
2022/10/15 09:04:51;;;;;;;18.50;9.23;;;;;;;11.00;89.59;101632.56;4902819;29;20547;-78
2022/10/15 09:07:42;;;;;;;24.73;16.40;;;;;;;11.14;89.05;101628.59;4901896;29;20024;-78
2022/10/15 09:10:32;;;;;;;19.13;12.03;;;;;;;11.14;88.17;101625.91;4908760;29;20460;-81
2022/10/15 09:13:47;;;;;;;13.43;8.13;;;;;;;10.77;88.29;101602.72;4904326;29;20070;-78
2022/10/15 09:23:26;;;;;;;22.67;12.50;;;;;;;10.16;91.51;101603.03;4829418;29;20045;-75
2022/10/15 09:26:23;;;;;;;15.27;9.43;;;;;;;10.07;91.09;101609.16;4848349;29;20060;-80
2022/10/15 09:28:57;;;;;;;14.10;8.80;;;;;;;10.22;91.28;101630.94;4925600;29;20044;-78
2022/10/15 09:31:35;;;;;;;15.43;9.13;;;;;;;10.35;90.83;101633.31;4925693;29;20028;-81
2022/10/15 09:34:10;;;;;;;12.68;8.40;;;;;;;10.45;90.21;101634.19;4922333;29;20067;-81
2022/10/15 09:36:49;;;;;;;11.67;8.27;;;;;;;10.54;90.28;101635.97;4919426;29;20028;-75
2022/10/15 09:39:23;;;;;;;12.00;8.07;;;;;;;10.57;89.47;101629.53;4920043;29;20036;-79
2022/10/15 09:42:07;;;;;;;16.90;7.50;;;;;;;10.52;89.36;101635.28;4923700;29;20047;-73
2022/10/15 09:44:38;;;;;;;18.80;8.00;;;;;;;10.28;90.35;101616.22;4925687;29;20036;-79
2022/10/15 09:47:25;;;;;;;16.27;7.53;;;;;;;10.07;91.35;101584.38;4923385;29;20135;-77
2022/10/15 09:49:50;;;;;;;17.50;8.47;;;;;;;10.22;91.08;101628.28;4919704;29;20034;-78
2022/10/15 09:52:21;;;;;;;17.87;8.77;;;;;;;10.20;92.08;101620.44;4920345;29;20107;-79
2022/10/15 09:55:22;;;;;;;17.90;8.53;;;;;;;10.17;91.83;101626.00;4903558;29;20354;-79
2022/10/15 09:57:55;;;;;;;20.17;9.83;;;;;;;10.14;92.61;101620.97;4905760;29;20057;-76
2022/10/15 10:01:04;;;;;;;21.17;9.63;;;;;;;10.18;93.23;101617.03;4923175;29;20069;-75
2022/10/15 10:03:32;;;;;;;21.27;10.10;;;;;;;10.17;92.91;101620.69;4921233;29;20032;-81
2022/10/15 10:06:02;;;;;;;16.85;9.60;;;;;;;10.13;92.87;101613.97;4919888;29;20490;-79
2022/10/15 10:08:35;;;;;;;16.90;9.20;;;;;;;10.18;93.33;101617.03;4919395;29;20043;-78
2022/10/15 10:11:06;;;;;;;13.53;9.10;;;;;;;9.98;92.71;101572.75;4918325;29;20040;-76
2022/10/15 10:13:39;;;;;;;16.50;9.30;;;;;;;10.23;92.96;101614.81;4917951;29;20025;-78
2022/10/15 10:16:53;;;;;;;18.57;11.13;;;;;;;10.32;93.25;101617.63;4925093;29;20060;-81
2022/10/15 10:26:34;;;;;;;18.03;10.50;;;;;;;10.36;91.52;101579.91;4916816;29;20088;-78
2022/10/15 10:29:01;;;;;;;20.07;9.73;;;;;;;10.47;91.68;101570.97;4918090;29;20128;-80
2022/10/15 10:31:32;;;;;;;18.33;10.30;;;;;;;10.72;90.84;101594.34;4920717;29;20028;-82
2022/10/15 10:34:02;;;;;;;15.53;9.27;;;;;;;10.99;90.76;101611.38;4923696;29;20096;-77
2022/10/15 10:37:03;;;;;;;17.57;10.10;;;;;;;11.12;90.34;101595.91;4929657;29;20024;-80
2022/10/15 10:40:25;;;;;;;12.63;9.33;;;;;;;11.10;88.59;101577.38;4929425;29;20093;-78
2022/10/15 10:43:14;;;;;;;14.73;8.87;;;;;;;11.39;88.63;101605.75;4930428;29;20039;-75
2022/10/15 10:45:54;;;;;;;18.93;11.07;;;;;;;11.43;88.30;101594.63;4926020;29;20357;-76
2022/10/15 10:48:38;;;;;;;18.47;10.83;;;;;;;11.48;87.37;101603.03;4925004;29;20032;-75
2022/10/15 10:51:19;;;;;;;20.90;11.57;;;;;;;11.56;87.50;101607.63;4923604;29;20028;-78
2022/10/15 10:54:05;;;;;;;17.63;9.57;;;;;;;11.66;87.42;101594.25;4919215;29;20051;-74
2022/10/15 10:56:41;;;;;;;17.07;9.60;;;;;;;11.77;87.33;101596.69;4919091;29;20032;-75
2022/10/15 10:59:31;;;;;;;11.60;8.33;;;;;;;11.92;85.50;101600.59;4918519;29;20123;-73
2022/10/15 11:01:58;;;;;;;11.90;7.87;;;;;;;11.92;83.93;101584.56;4901782;29;20076;-75
2022/10/15 11:04:25;;;;;;;10.53;7.63;;;;;;;12.15;83.89;101600.16;4901105;29;20540;-75
2022/10/15 11:06:50;;;;;;;13.47;7.70;;;;;;;12.17;83.41;101603.50;4917507;29;20199;-76
2022/10/15 11:13:35;;;;;;;13.03;8.03;;;;;;;12.29;83.08;101602.25;4911086;29;20494;-78
2022/10/15 11:16:38;;;;;;;11.33;6.90;;;;;;;12.37;82.31;101607.66;4918735;29;20058;-77
2022/10/15 11:19:42;;;;;;;12.37;7.80;;;;;;;12.39;81.96;101605.69;4902237;29;20047;-77
2022/10/15 11:22:13;;;;;;;12.00;6.57;;;;;;;12.65;81.49;101601.22;4903748;29;20032;-76
2022/10/15 11:29:05;;;;;;;13.37;8.10;;;;;;;12.97;79.74;101602.44;4861847;29;20038;-74
2022/10/15 11:32:01;;;;;;;13.73;7.57;;;;;;;12.76;80.52;101599.31;4879685;29;20064;-76
2022/10/15 11:35:37;;;;;;;12.83;8.10;;;;;;;12.44;81.11;101573.19;4887458;29;20069;-79
2022/10/15 11:38:03;;;;;;;15.23;9.40;;;;;;;12.49;81.28;101614.47;4887016;29;20040;-78
2022/10/15 11:41:12;;;;;;;12.90;8.17;;;;;;;12.38;82.28;101604.00;4888247;29;20091;-75
2022/10/15 11:44:02;;;;;;;13.53;8.43;;;;;;;12.23;82.35;101609.06;4915541;29;20032;-69
2022/10/15 11:46:46;;;;;;;21.07;11.10;;;;;;;12.13;83.21;101604.78;4900251;29;20063;-72
2022/10/15 11:49:19;;;;;;;14.03;8.43;;;;;;;12.02;84.00;101604.00;4918569;29;20170;-71
2022/10/15 11:59:22;;;;;;;16.10;11.30;;;;;;;12.18;83.10;101589.16;4916394;29;20047;-78
2022/10/15 12:02:27;;;;;;;24.33;11.27;;;;;;;12.64;81.86;101604.91;4885815;29;20024;-79
2022/10/15 12:05:05;;;;;;;15.17;9.70;;;;;;;12.70;81.21;101563.34;4869394;29;20817;-76
2022/10/15 12:07:50;;;;;;;12.50;8.50;;;;;;;12.97;79.41;101583.72;4905056;29;20028;-76
2022/10/15 12:10:34;;;;;;;16.03;8.30;;;;;;;13.12;78.81;101573.28;4927930;29;20035;-78
2022/10/15 12:13:24;;;;;;;12.20;8.03;;;;;;;13.43;79.27;101600.38;4923908;29;20055;-76
2022/10/15 12:16:11;;;;;;;13.40;8.50;;;;;;;13.43;77.87;101609.25;4910378;29;20028;-77